Time;durP1;ratioP1;P1;durP2;ratioP2;P2;SDS_P1;SDS_P2;PMS_P1;PMS_P2;Temp;Humidity;BMP_temperature;BMP_pressure;BME280_temperature;BME280_humidity;BME280_pressure;Samples;Min_cycle;Max_cycle;Signal;HPM_P1;HPM_P2
2022/07/10 00:00:53;;;;;;;6.45;1.70;;;;;;;;;;10058585;28;20176;-73
2022/07/10 00:05:49;;;;;;;5.68;1.85;;;;;;;;;;10049116;28;20041;-73
2022/07/10 00:10:42;;;;;;;4.15;2.35;;;;;;;;;;10056063;28;20041;-73
2022/07/10 00:15:37;;;;;;;4.30;2.50;;;;;;;;;;10050098;28;20046;-73
2022/07/10 00:20:32;;;;;;;2.55;2.35;;;;;;;;;;10049431;28;20060;-73
2022/07/10 00:25:26;;;;;;;3.03;2.53;;;;;;;;;;10054853;28;20056;-73
2022/07/10 00:30:20;;;;;;;4.28;2.70;;;;;;;;;;10052506;28;20057;-73
2022/07/10 00:35:14;;;;;;;2.67;2.50;;;;;;;;;;10050615;28;20127;-72
2022/07/10 00:40:08;;;;;;;2.67;2.28;;;;;;;;;;10059918;28;20412;-72
2022/07/10 00:45:02;;;;;;;3.60;2.88;;;;;;;;;;10055459;28;20042;-73
2022/07/10 00:49:56;;;;;;;6.25;3.50;;;;;;;;;;10058084;28;20057;-74
2022/07/10 00:54:51;;;;;;;2.65;2.25;;;;;;;;;;10041348;28;20057;-74
2022/07/10 00:59:45;;;;;;;2.45;2.25;;;;;;;;;;10050564;28;20441;-73
2022/07/10 01:04:39;;;;;;;7.68;2.50;;;;;;;;;;10048856;28;20475;-72
2022/07/10 01:09:34;;;;;;;3.40;2.33;;;;;;;;;;10053126;28;20075;-72
2022/07/10 01:14:29;;;;;;;7.53;2.30;;;;;;;;;;10050580;28;20058;-72
2022/07/10 01:19:24;;;;;;;4.22;2.10;;;;;;;;;;10055787;28;20081;-72
2022/07/10 01:24:21;;;;;;;3.13;2.05;;;;;;;;;;10052816;28;20120;-72
2022/07/10 01:29:15;;;;;;;3.53;2.28;;;;;;;;;;10051816;28;20103;-72
2022/07/10 01:34:10;;;;;;;1.77;1.65;;;;;;;;;;10052693;28;20532;-72
2022/07/10 01:39:05;;;;;;;2.60;2.22;;;;;;;;;;10055013;28;20061;-73
2022/07/10 01:44:00;;;;;;;4.38;1.95;;;;;;;;;;10057676;28;20115;-70
2022/07/10 01:48:54;;;;;;;3.45;2.25;;;;;;;;;;10054574;28;20417;-70
2022/07/10 01:53:48;;;;;;;5.72;2.50;;;;;;;;;;10055995;28;20456;-71
2022/07/10 01:58:42;;;;;;;5.15;2.33;;;;;;;;;;10051888;28;20425;-72
2022/07/10 02:08:48;;;;;;;2.85;2.00;;;;;;;;;;10051183;28;20484;-72
2022/07/10 02:13:42;;;;;;;1.77;1.65;;;;;;;;;;10052569;28;20049;-71
2022/07/10 02:18:36;;;;;;;2.08;1.88;;;;;;;;;;10058942;28;20088;-71
2022/07/10 02:23:31;;;;;;;3.05;2.15;;;;;;;;;;10064216;28;20049;-71
2022/07/10 02:28:24;;;;;;;7.63;3.03;;;;;;;;;;10052349;28;20137;-72
2022/07/10 02:33:17;;;;;;;3.05;2.47;;;;;;;;;;10056145;28;20468;-72
2022/07/10 02:38:10;;;;;;;3.13;2.60;;;;;;;;;;10057192;28;20054;-70
2022/07/10 02:43:06;;;;;;;5.93;2.40;;;;;;;;;;10055569;28;20445;-71
2022/07/10 02:48:00;;;;;;;4.88;2.55;;;;;;;;;;10053418;28;20050;-71
2022/07/10 02:52:55;;;;;;;3.95;2.10;;;;;;;;;;10060473;28;20045;-72
2022/07/10 02:57:49;;;;;;;2.78;2.13;;;;;;;;;;10040747;28;20065;-71
2022/07/10 03:02:43;;;;;;;2.40;2.20;;;;;;;;;;10051165;28;20046;-71
2022/07/10 03:07:37;;;;;;;2.65;2.30;;;;;;;;;;10048260;28;20083;-71
2022/07/10 03:12:31;;;;;;;4.70;1.98;;;;;;;;;;10056681;28;20099;-71
2022/07/10 03:17:26;;;;;;;3.50;1.95;;;;;;;;;;10050100;28;20478;-71
2022/07/10 03:22:20;;;;;;;2.33;1.83;;;;;;;;;;10050824;28;20152;-71
2022/07/10 03:27:14;;;;;;;4.70;2.13;;;;;;;;;;10045089;28;20505;-71
2022/07/10 03:32:08;;;;;;;2.63;1.95;;;;;;;;;;10050851;28;20052;-71
2022/07/10 03:37:05;;;;;;;3.50;2.20;;;;;;;;;;10046929;28;20096;-71
2022/07/10 03:41:59;;;;;;;2.05;1.80;;;;;;;;;;10046291;28;20100;-71
2022/07/10 03:46:52;;;;;;;2.15;1.95;;;;;;;;;;10055013;28;20099;-72
2022/07/10 03:51:46;;;;;;;2.10;1.90;;;;;;;;;;10051580;28;20107;-71
2022/07/10 04:01:53;;;;;;;1.92;1.75;;;;;;;;;;10050123;28;20049;-70
2022/07/10 04:06:46;;;;;;;3.70;2.10;;;;;;;;;;10050686;28;20053;-71
2022/07/10 04:11:40;;;;;;;2.35;2.03;;;;;;;;;;10051472;28;20076;-71
2022/07/10 04:16:34;;;;;;;3.75;1.77;;;;;;;;;;10051173;28;20068;-71
2022/07/10 04:21:29;;;;;;;6.50;2.50;;;;;;;;;;10048140;28;20053;-70
2022/07/10 04:26:23;;;;;;;2.60;2.40;;;;;;;;;;10049718;28;20046;-71
2022/07/10 04:31:17;;;;;;;2.47;2.28;;;;;;;;;;10047358;28;20512;-71
2022/07/10 04:36:11;;;;;;;2.80;2.00;;;;;;;;;;10049772;28;20049;-71
2022/07/10 04:41:05;;;;;;;3.22;2.25;;;;;;;;;;10051117;28;20042;-71
2022/07/10 04:45:59;;;;;;;4.90;2.58;;;;;;;;;;10043985;28;20124;-71
2022/07/10 04:50:53;;;;;;;3.88;2.28;;;;;;;;;;10044253;28;20124;-70
2022/07/10 04:55:47;;;;;;;2.88;2.30;;;;;;;;;;10055238;28;20052;-71
2022/07/10 05:00:41;;;;;;;5.35;2.30;;;;;;;;;;10050436;28;20061;-70
2022/07/10 05:05:35;;;;;;;4.55;1.85;;;;;;;;;;10059646;28;20519;-71
2022/07/10 05:10:28;;;;;;;4.28;2.28;;;;;;;;;;10050140;28;20474;-70
2022/07/10 05:15:23;;;;;;;2.60;2.40;;;;;;;;;;10055376;28;20089;-71
2022/07/10 05:20:17;;;;;;;3.78;2.22;;;;;;;;;;10061647;28;20057;-71
2022/07/10 05:25:11;;;;;;;3.75;3.25;;;;;;;;;;10052493;28;20977;-70
2022/07/10 05:30:09;;;;;;;9.90;3.72;;;;;;;;;;10057523;28;20061;-71
2022/07/10 05:35:03;;;;;;;3.97;2.80;;;;;;;;;;10063414;28;20411;-71
2022/07/10 05:39:57;;;;;;;5.72;3.38;;;;;;;;;;10056626;28;20133;-71
2022/07/10 05:44:51;;;;;;;5.85;3.03;;;;;;;;;;10046131;28;20084;-71
2022/07/10 05:49:45;;;;;;;4.15;3.75;;;;;;;;;;10066735;28;20412;-71
2022/07/10 05:54:39;;;;;;;6.63;3.75;;;;;;;;;;10051026;28;20136;-72
2022/07/10 05:59:34;;;;;;;3.67;3.05;;;;;;;;;;10058816;28;20133;-73
2022/07/10 06:04:28;;;;;;;4.07;3.05;;;;;;;;;;10054728;28;20100;-71
2022/07/10 06:09:23;;;;;;;2.47;2.28;;;;;;;;;;10052566;28;20060;-70
2022/07/10 06:14:17;;;;;;;3.90;2.00;;;;;;;;;;10064489;28;20037;-71
2022/07/10 06:19:13;;;;;;;1.70;1.60;;;;;;;;;;10068638;28;20049;-70
2022/07/10 06:24:07;;;;;;;1.48;1.38;;;;;;;;;;10068022;28;20038;-71
2022/07/10 06:29:01;;;;;;;6.95;1.80;;;;;;;;;;10063157;28;20507;-71
2022/07/10 06:33:56;;;;;;;5.95;1.73;;;;;;;;;;10061275;28;20046;-71
2022/07/10 06:38:50;;;;;;;3.65;1.80;;;;;;;;;;10049319;28;20054;-70
2022/07/10 06:43:44;;;;;;;1.98;1.88;;;;;;;;;;10056350;28;20049;-70
2022/07/10 06:48:40;;;;;;;3.47;1.42;;;;;;;;;;10057731;28;20064;-72
2022/07/10 06:53:34;;;;;;;3.13;1.75;;;;;;;;;;10050436;28;20050;-71
2022/07/10 06:58:29;;;;;;;4.75;1.95;;;;;;;;;;10054151;28;20074;-69
2022/07/10 07:03:23;;;;;;;6.10;1.85;;;;;;;;;;10049408;28;20046;-69
2022/07/10 07:08:18;;;;;;;3.40;1.88;;;;;;;;;;10056875;28;20061;-69
2022/07/10 07:13:11;;;;;;;4.18;1.80;;;;;;;;;;10058527;28;20057;-69
2022/07/10 07:18:08;;;;;;;3.63;2.28;;;;;;;;;;10061774;28;20129;-69
2022/07/10 07:23:11;;;;;;;3.88;2.20;;;;;;;;;;10061116;28;20041;-69
2022/07/10 07:28:06;;;;;;;2.72;1.75;;;;;;;;;;10064373;28;20057;-69
2022/07/10 07:33:00;;;;;;;5.45;2.22;;;;;;;;;;10058704;28;20045;-70
2022/07/10 07:37:55;;;;;;;5.53;2.35;;;;;;;;;;10061107;28;20045;-69
2022/07/10 07:42:50;;;;;;;5.00;1.60;;;;;;;;;;10059244;28;20121;-72
2022/07/10 07:47:48;;;;;;;5.95;1.80;;;;;;;;;;10061716;28;20070;-72
2022/07/10 07:52:42;;;;;;;1.63;1.50;;;;;;;;;;10064551;28;20084;-72
2022/07/10 07:57:37;;;;;;;3.33;1.70;;;;;;;;;;10059787;28;20061;-72
2022/07/10 08:02:31;;;;;;;4.13;1.83;;;;;;;;;;10059435;28;20049;-73
2022/07/10 08:08:06;;;;;;;1.90;1.70;;;;;;;;;;10040156;28;20060;-75
2022/07/10 08:12:59;;;;;;;2.13;1.55;;;;;;;;;;10057914;28;20493;-72
2022/07/10 08:17:55;;;;;;;6.03;2.28;;;;;;;;;;10060078;28;20099;-72
2022/07/10 08:22:49;;;;;;;10.20;2.38;;;;;;;;;;10055459;28;20530;-72
2022/07/10 08:27:52;;;;;;;2.35;1.40;;;;;;;;;;10058558;28;20497;-69
2022/07/10 08:32:46;;;;;;;3.80;1.27;;;;;;;;;;10058326;28;20049;-67
2022/07/10 08:37:42;;;;;;;4.80;1.20;;;;;;;;;;10057579;28;20053;-68
2022/07/10 08:42:37;;;;;;;1.50;1.05;;;;;;;;;;10059263;28;20532;-67
2022/07/10 08:47:31;;;;;;;1.65;1.00;;;;;;;;;;10057446;28;20080;-68
2022/07/10 08:52:41;;;;;;;3.25;1.30;;;;;;;;;;10059094;28;20642;-69
2022/07/10 08:57:34;;;;;;;5.05;1.27;;;;;;;;;;10056327;28;20068;-70
2022/07/10 09:02:28;;;;;;;4.93;1.20;;;;;;;;;;10058306;28;20053;-70
2022/07/10 09:07:24;;;;;;;3.95;1.40;;;;;;;;;;10057336;28;20092;-70
2022/07/10 09:12:18;;;;;;;1.80;1.17;;;;;;;;;;10054939;28;20053;-70
2022/07/10 09:17:11;;;;;;;10.15;1.27;;;;;;;;;;10056601;28;20041;-69
2022/07/10 09:22:08;;;;;;;5.05;1.40;;;;;;;;;;10057355;28;20060;-69
2022/07/10 09:27:03;;;;;;;1.75;1.40;;;;;;;;;;10057190;28;20406;-69
2022/07/10 09:32:02;;;;;;;3.42;1.60;;;;;;;;;;10064230;28;20112;-75
2022/07/10 09:36:56;;;;;;;2.85;1.40;;;;;;;;;;10062958;28;20136;-69
2022/07/10 09:41:50;;;;;;;1.88;1.10;;;;;;;;;;10064316;28;20132;-72
2022/07/10 09:46:45;;;;;;;2.90;1.30;;;;;;;;;;10070384;28;20056;-71
2022/07/10 09:51:46;;;;;;;2.05;0.98;;;;;;;;;;10071804;28;20049;-69
2022/07/10 09:56:51;;;;;;;1.70;1.20;;;;;;;;;;10068404;28;20056;-69
2022/07/10 10:01:51;;;;;;;1.88;1.20;;;;;;;;;;10070154;28;20057;-67
2022/07/10 10:06:52;;;;;;;3.08;1.35;;;;;;;;;;10068418;28;20507;-69
2022/07/10 10:11:47;;;;;;;6.15;1.10;;;;;;;;;;10068388;28;20053;-70
2022/07/10 10:16:44;;;;;;;0.98;0.80;;;;;;;;;;10069783;28;20052;-75
2022/07/10 10:21:38;;;;;;;8.43;1.65;;;;;;;;;;10069386;28;20096;-69
2022/07/10 10:26:32;;;;;;;3.33;1.10;;;;;;;;;;10069180;28;20068;-69
2022/07/10 10:31:30;;;;;;;2.80;1.73;;;;;;;;;;10069466;28;20073;-70
2022/07/10 10:36:45;;;;;;;2.03;1.10;;;;;;;;;;10050692;28;20500;-68
2022/07/10 10:41:55;;;;;;;1.33;1.00;;;;;;;;;;10053737;28;20157;-68
2022/07/10 10:47:05;;;;;;;2.35;1.02;;;;;;;;;;10045087;28;20050;-68
2022/07/10 10:52:02;;;;;;;3.38;1.02;;;;;;;;;;10062850;28;20433;-67
2022/07/10 10:57:40;;;;;;;5.03;1.33;;;;;;;;;;10068439;28;20436;-67
2022/07/10 11:02:55;;;;;;;2.03;0.88;;;;;;;;;;10064062;28;20053;-67
2022/07/10 11:07:59;;;;;;;3.17;1.20;;;;;;;;;;10057140;28;20056;-68
2022/07/10 11:13:05;;;;;;;5.68;1.00;;;;;;;;;;10067331;28;20073;-67
2022/07/10 11:18:00;;;;;;;2.25;0.90;;;;;;;;;;10065696;28;20053;-67
2022/07/10 11:23:22;;;;;;;2.95;1.08;;;;;;;;;;10064389;28;20041;-67
2022/07/10 11:28:22;;;;;;;2.17;1.00;;;;;;;;;;10056722;28;20431;-67
2022/07/10 11:33:16;;;;;;;1.65;0.82;;;;;;;;;;10064770;28;20099;-67
2022/07/10 11:38:10;;;;;;;1.95;0.90;;;;;;;;;;10066347;28;20057;-67
2022/07/10 11:43:06;;;;;;;4.72;1.08;;;;;;;;;;10066350;28;20050;-66
2022/07/10 11:48:00;;;;;;;6.60;1.27;;;;;;;;;;10063363;28;20058;-66
2022/07/10 11:52:54;;;;;;;1.52;0.88;;;;;;;;;;10062617;28;20579;-67
2022/07/10 11:57:51;;;;;;;2.03;0.90;;;;;;;;;;10064488;28;20447;-67
2022/07/10 12:02:45;;;;;;;1.10;0.75;;;;;;;;;;10066159;28;20071;-68
2022/07/10 12:07:39;;;;;;;1.33;0.80;;;;;;;;;;10065275;28;20103;-68
2022/07/10 12:12:33;;;;;;;2.20;1.25;;;;;;;;;;10062993;28;20395;-70
2022/07/10 12:17:27;;;;;;;1.48;1.38;;;;;;;;;;10062014;28;20069;-69
2022/07/10 12:22:21;;;;;;;2.60;1.38;;;;;;;;;;10065106;28;20046;-68
2022/07/10 12:27:40;;;;;;;1.50;0.98;;;;;;;;;;10065421;28;20499;-68
2022/07/10 12:32:35;;;;;;;3.65;0.93;;;;;;;;;;10063726;28;20114;-70
2022/07/10 12:37:28;;;;;;;1.52;1.10;;;;;;;;;;10065050;28;20052;-70
2022/07/10 12:42:29;;;;;;;3.35;1.10;;;;;;;;;;10063293;28;20073;-68
2022/07/10 12:47:24;;;;;;;2.17;1.00;;;;;;;;;;10062834;28;20042;-73
2022/07/10 12:52:26;;;;;;;2.05;1.00;;;;;;;;;;10062734;28;20451;-71
2022/07/10 12:57:24;;;;;;;1.37;0.70;;;;;;;;;;10064735;28;20416;-71
2022/07/10 13:02:20;;;;;;;0.95;0.90;;;;;;;;;;10061170;28;20350;-70
2022/07/10 13:07:15;;;;;;;;;;;;;;;;;;10061146;28;20042;-70
2022/07/10 13:12:09;;;;;;;3.47;1.00;;;;;;;;;;10061642;28;20287;-69
2022/07/10 13:17:04;;;;;;;3.47;1.02;;;;;;;;;;10059823;28;20037;-68
2022/07/10 13:21:58;;;;;;;2.28;1.38;;;;;;;;;;10067478;28;20049;-67
2022/07/10 13:26:57;;;;;;;1.85;1.00;;;;;;;;;;10069702;28;20049;-70
2022/07/10 13:31:53;;;;;;;2.55;0.80;;;;;;;;;;10071103;28;20059;-70
2022/07/10 13:36:47;;;;;;;1.35;0.90;;;;;;;;;;10069800;28;20049;-71
2022/07/10 13:41:41;;;;;;;2.97;0.85;;;;;;;;;;10084843;28;20061;-71
2022/07/10 13:46:35;;;;;;;1.63;1.17;;;;;;;;;;10067963;28;20080;-71
2022/07/10 13:51:30;;;;;;;2.03;0.65;;;;;;;;;;10067320;28;20556;-71
2022/07/10 13:56:25;;;;;;;0.80;0.80;;;;;;;;;;10068474;28;20054;-72
2022/07/10 14:01:18;;;;;;;1.15;0.85;;;;;;;;;;10068310;28;20057;-71
2022/07/10 14:06:13;;;;;;;5.25;0.80;;;;;;;;;;10066408;28;20579;-74
2022/07/10 14:11:07;;;;;;;14.55;0.85;;;;;;;;;;10070381;28;20124;-72
2022/07/10 14:16:02;;;;;;;1.23;0.75;;;;;;;;;;10067641;28;20454;-67
2022/07/10 14:21:02;;;;;;;2.05;0.77;;;;;;;;;;10063058;28;20049;-68
2022/07/10 14:25:55;;;;;;;1.70;0.68;;;;;;;;;;10062387;28;20084;-68
2022/07/10 14:30:49;;;;;;;0.65;0.52;;;;;;;;;;10059871;28;20056;-70
2022/07/10 14:35:44;;;;;;;0.93;0.57;;;;;;;;;;10059804;28;20196;-68
2022/07/10 14:40:38;;;;;;;2.25;0.60;;;;;;;;;;10060539;28;20461;-68
2022/07/10 14:45:32;;;;;;;1.10;0.60;;;;;;;;;;10073554;28;20389;-67
2022/07/10 14:50:46;;;;;;;1.10;0.70;;;;;;;;;;10065632;28;20049;-68
2022/07/10 14:55:40;;;;;;;0.65;0.65;;;;;;;;;;10065407;28;20137;-68
2022/07/10 15:00:34;;;;;;;1.08;0.80;;;;;;;;;;10065306;28;20053;-68
2022/07/10 15:05:30;;;;;;;2.05;1.48;;;;;;;;;;10065723;28;20126;-71
2022/07/10 15:10:24;;;;;;;1.30;0.60;;;;;;;;;;10066664;28;20138;-69
2022/07/10 15:15:19;;;;;;;0.52;0.50;;;;;;;;;;10064921;28;20069;-69
2022/07/10 15:20:18;;;;;;;0.77;0.70;;;;;;;;;;10062933;28;20103;-69
2022/07/10 15:25:12;;;;;;;3.20;0.70;;;;;;;;;;10062874;28;20140;-68
2022/07/10 15:30:08;;;;;;;1.83;0.95;;;;;;;;;;10064381;28;20416;-68
2022/07/10 15:35:04;;;;;;;0.47;0.45;;;;;;;;;;10065813;28;20385;-69
2022/07/10 15:39:59;;;;;;;1.50;0.90;;;;;;;;;;10065323;28;20042;-69
2022/07/10 15:44:53;;;;;;;2.25;1.02;;;;;;;;;;10065845;28;20049;-69
2022/07/10 15:49:46;;;;;;;0.73;0.60;;;;;;;;;;10066476;28;20049;-68
2022/07/10 15:54:41;;;;;;;0.80;0.63;;;;;;;;;;10066004;28;20084;-68
2022/07/10 15:59:35;;;;;;;1.45;0.73;;;;;;;;;;10067662;28;20053;-69
2022/07/10 16:04:29;;;;;;;2.25;0.60;;;;;;;;;;10066136;28;20095;-70
2022/07/10 16:09:24;;;;;;;2.25;0.82;;;;;;;;;;10066270;28;20069;-68
2022/07/10 16:14:19;;;;;;;5.03;1.23;;;;;;;;;;10080585;28;20045;-68
2022/07/10 16:19:13;;;;;;;3.27;0.90;;;;;;;;;;10064997;28;20134;-68
2022/07/10 16:24:07;;;;;;;2.85;0.80;;;;;;;;;;10066956;28;20045;-69
2022/07/10 16:29:01;;;;;;;3.83;1.00;;;;;;;;;;10065108;28;20514;-68
2022/07/10 16:33:55;;;;;;;1.02;0.93;;;;;;;;;;10065646;28;20120;-68
2022/07/10 16:38:51;;;;;;;1.00;0.73;;;;;;;;;;10064724;28;20148;-68
2022/07/10 16:43:45;;;;;;;1.77;0.65;;;;;;;;;;10065563;28;20053;-67
2022/07/10 16:48:39;;;;;;;1.00;0.55;;;;;;;;;;10065650;28;20057;-67
2022/07/10 16:53:33;;;;;;;0.88;0.80;;;;;;;;;;10081961;28;20437;-68
2022/07/10 16:58:47;;;;;;;1.85;0.85;;;;;;;;;;10072211;28;20401;-68
2022/07/10 17:03:42;;;;;;;3.58;1.17;;;;;;;;;;10057337;28;20062;-68
2022/07/10 17:08:38;;;;;;;2.93;1.00;;;;;;;;;;10074294;28;20049;-69
2022/07/10 17:13:33;;;;;;;1.33;0.90;;;;;;;;;;10053014;28;20100;-68
2022/07/10 17:18:31;;;;;;;0.93;0.93;;;;;;;;;;10070071;28;20069;-69
2022/07/10 17:23:25;;;;;;;2.53;0.95;;;;;;;;;;10056932;28;20054;-68
2022/07/10 17:28:20;;;;;;;1.60;1.20;;;;;;;;;;10061591;28;20080;-69
2022/07/10 17:33:13;;;;;;;1.73;0.93;;;;;;;;;;10065307;28;20416;-68
2022/07/10 17:38:05;;;;;;;5.40;1.00;;;;;;;;;;10060333;28;20057;-68
2022/07/10 17:43:03;;;;;;;1.42;1.00;;;;;;;;;;10066820;28;20107;-68
2022/07/10 17:47:57;;;;;;;1.63;0.80;;;;;;;;;;10070177;28;20050;-67
2022/07/10 17:52:50;;;;;;;1.90;0.90;;;;;;;;;;10060572;28;20045;-67
2022/07/10 17:57:44;;;;;;;2.35;1.00;;;;;;;;;;10057845;28;20111;-71
2022/07/10 18:02:39;;;;;;;2.15;1.10;;;;;;;;;;10056074;28;20054;-67
2022/07/10 18:07:35;;;;;;;7.13;1.00;;;;;;;;;;10049625;28;20100;-68
2022/07/10 18:12:29;;;;;;;0.90;0.90;;;;;;;;;;10053972;28;20515;-68
2022/07/10 18:17:22;;;;;;;2.47;1.00;;;;;;;;;;10055120;28;20049;-68
2022/07/10 18:22:16;;;;;;;0.88;0.88;;;;;;;;;;10059113;28;20045;-67
2022/07/10 18:27:10;;;;;;;1.48;0.82;;;;;;;;;;10062866;28;20115;-68
2022/07/10 18:32:09;;;;;;;3.20;1.27;;;;;;;;;;10047881;28;20046;-68
2022/07/10 18:37:04;;;;;;;3.60;1.20;;;;;;;;;;10051236;28;20083;-67
2022/07/10 18:41:58;;;;;;;2.80;1.23;;;;;;;;;;10053115;28;20085;-68
2022/07/10 18:46:52;;;;;;;2.40;1.08;;;;;;;;;;10058485;28;20057;-68
2022/07/10 18:51:45;;;;;;;6.57;1.45;;;;;;;;;;10055985;28;20504;-67
2022/07/10 18:56:39;;;;;;;4.13;1.35;;;;;;;;;;10059645;28;20123;-66
2022/07/10 19:01:33;;;;;;;1.05;0.95;;;;;;;;;;10063407;28;20554;-67
2022/07/10 19:06:27;;;;;;;2.10;1.48;;;;;;;;;;10063330;28;20041;-66
2022/07/10 19:11:20;;;;;;;7.18;1.88;;;;;;;;;;10064925;28;20072;-66
2022/07/10 19:16:15;;;;;;;6.90;1.50;;;;;;;;;;10061965;28;20045;-66
2022/07/10 19:21:09;;;;;;;7.70;1.85;;;;;;;;;;10065565;28;20111;-65
2022/07/10 19:26:10;;;;;;;15.35;1.90;;;;;;;;;;10065125;28;20053;-67
2022/07/10 19:31:04;;;;;;;6.15;1.55;;;;;;;;;;10063019;28;20077;-67
2022/07/10 19:35:59;;;;;;;8.63;1.77;;;;;;;;;;10062179;28;20124;-67
2022/07/10 19:40:54;;;;;;;3.80;1.83;;;;;;;;;;10061868;28;20045;-70
2022/07/10 19:45:48;;;;;;;3.97;1.48;;;;;;;;;;10061177;28;20388;-69
2022/07/10 19:50:43;;;;;;;7.30;1.52;;;;;;;;;;10063176;28;20458;-68
2022/07/10 19:55:36;;;;;;;5.25;2.00;;;;;;;;;;10059913;28;20048;-69
2022/07/10 20:00:31;;;;;;;4.95;1.85;;;;;;;;;;10064872;28;20049;-68
2022/07/10 20:05:26;;;;;;;4.82;1.75;;;;;;;;;;10065494;28;20542;-70
2022/07/10 20:10:24;;;;;;;6.72;1.98;;;;;;;;;;10064574;28;20480;-70
2022/07/10 20:15:18;;;;;;;7.35;2.40;;;;;;;;;;10063353;28;20045;-70
